Time;durP1;ratioP1;P1;durP2;ratioP2;P2;SDS_P1;SDS_P2;PMS_P1;PMS_P2;Temp;Humidity;BMP_temperature;BMP_pressure;BME280_temperature;BME280_humidity;BME280_pressure;Samples;Min_cycle;Max_cycle;Signal;HPM_P1;HPM_P2
2021/03/22 00:01:36;;;;;;;;;;;20.40;33.60;;;;;;466910;254;1218;-45
2021/03/22 00:03:38;;;;;;;;;;;20.40;33.50;;;;;;467862;253;1051;-45
2021/03/22 00:05:39;;;;;;;;;;;20.50;33.50;;;;;;467719;252;1367;-45
2021/03/22 00:07:40;;;;;;;;;;;20.50;33.40;;;;;;468855;253;1261;-45
2021/03/22 00:09:42;;;;;;;;;;;20.50;33.30;;;;;;467155;252;1188;-45
2021/03/22 00:11:43;;;;;;;;;;;20.60;33.30;;;;;;467900;253;1283;-45
2021/03/22 00:13:44;;;;;;;;;;;20.60;33.20;;;;;;468202;254;1070;-45
2021/03/22 00:15:45;;;;;;;;;;;20.70;33.20;;;;;;467546;252;1468;-45
2021/03/22 00:17:47;;;;;;;;;;;20.70;33.20;;;;;;468820;252;1158;-45
2021/03/22 00:19:48;;;;;;;;;;;20.70;33.10;;;;;;467177;254;2166;-45
2021/03/22 00:21:49;;;;;;;;;;;20.70;33.10;;;;;;467764;253;1271;-45
2021/03/22 00:23:50;;;;;;;;;;;20.70;33.00;;;;;;467720;252;1054;-45
2021/03/22 00:25:52;;;;;;;;;;;20.80;33.10;;;;;;468997;253;1292;-45
2021/03/22 00:27:53;;;;;;;;;;;20.80;33.00;;;;;;467146;252;1109;-45
2021/03/22 00:29:55;;;;;;;;;;;20.80;32.90;;;;;;467944;253;1083;-45
2021/03/22 00:31:56;;;;;;;;;;;20.80;32.90;;;;;;467519;253;1064;-45
2021/03/22 00:33:57;;;;;;;;;;;20.80;32.90;;;;;;468902;252;1106;-46
2021/03/22 00:35:59;;;;;;;;;;;20.90;32.90;;;;;;467078;252;1063;-45
2021/03/22 00:38:00;;;;;;;;;;;20.90;32.90;;;;;;467921;255;1052;-45
2021/03/22 00:40:01;;;;;;;;;;;20.90;32.90;;;;;;467539;253;2208;-45
2021/03/22 00:42:03;;;;;;;;;;;20.90;32.90;;;;;;468836;251;1142;-45
2021/03/22 00:44:04;;;;;;;;;;;21.00;32.80;;;;;;467293;253;1034;-45
2021/03/22 00:46:06;;;;;;;;;;;20.90;32.80;;;;;;467796;255;1113;-44
2021/03/22 00:48:07;;;;;;;;;;;21.00;32.80;;;;;;467630;253;1242;-45
2021/03/22 00:50:08;;;;;;;;;;;21.00;32.80;;;;;;468935;253;1057;-45
2021/03/22 00:52:11;;;;;;;;;;;21.00;32.80;;;;;;466977;253;1297;-45
2021/03/22 00:54:12;;;;;;;;;;;21.00;32.80;;;;;;467752;255;1121;-45
2021/03/22 00:56:14;;;;;;;;;;;21.00;32.70;;;;;;467531;252;1321;-45
2021/03/22 00:58:15;;;;;;;;;;;21.10;32.70;;;;;;468758;253;1086;-45
2021/03/22 01:00:17;;;;;;;;;;;21.00;32.70;;;;;;467053;253;2142;-45
2021/03/22 01:02:18;;;;;;;;;;;21.00;32.70;;;;;;467712;255;1336;-45
2021/03/22 01:04:19;;;;;;;;;;;21.00;32.70;;;;;;467559;253;984;-45
2021/03/22 01:06:20;;;;;;;;;;;21.00;32.70;;;;;;468803;252;1162;-45
2021/03/22 01:08:22;;;;;;;;;;;21.10;32.70;;;;;;466956;254;1201;-45
2021/03/22 01:10:23;;;;;;;;;;;21.10;32.70;;;;;;467820;253;1160;-45
2021/03/22 01:12:24;;;;;;;;;;;21.10;32.60;;;;;;467973;254;1195;-45
2021/03/22 01:14:25;;;;;;;;;;;21.10;32.60;;;;;;467603;253;1076;-45
2021/03/22 01:16:27;;;;;;;;;;;21.10;32.60;;;;;;468813;252;1337;-45
2021/03/22 01:18:28;;;;;;;;;;;21.10;32.60;;;;;;467080;252;1006;-45
2021/03/22 01:20:29;;;;;;;;;;;21.10;32.60;;;;;;467807;255;2129;-45
2021/03/22 01:22:31;;;;;;;;;;;21.20;32.60;;;;;;467556;253;1074;-45
2021/03/22 01:24:32;;;;;;;;;;;21.20;32.60;;;;;;468904;252;1033;-45
2021/03/22 01:26:33;;;;;;;;;;;21.20;32.60;;;;;;467047;253;1243;-45
2021/03/22 01:28:35;;;;;;;;;;;21.20;32.50;;;;;;467895;253;1061;-45
2021/03/22 01:30:36;;;;;;;;;;;21.20;32.50;;;;;;467672;252;1288;-45
2021/03/22 01:32:37;;;;;;;;;;;21.20;32.50;;;;;;468812;252;1208;-45
2021/03/22 01:34:38;;;;;;;;;;;21.20;32.50;;;;;;467364;252;1129;-45
2021/03/22 01:36:40;;;;;;;;;;;21.20;32.50;;;;;;468014;253;993;-45
2021/03/22 01:38:41;;;;;;;;;;;21.20;32.50;;;;;;467918;252;1043;-46
2021/03/22 01:40:42;;;;;;;;;;;21.20;32.50;;;;;;469116;253;2203;-45
2021/03/22 01:42:43;;;;;;;;;;;21.20;32.50;;;;;;467091;253;1066;-45
2021/03/22 01:44:45;;;;;;;;;;;21.20;32.50;;;;;;467867;253;1112;-45
2021/03/22 01:46:46;;;;;;;;;;;21.20;32.40;;;;;;467814;254;1184;-45
2021/03/22 01:48:47;;;;;;;;;;;21.20;32.50;;;;;;467945;254;1057;-45
2021/03/22 01:50:49;;;;;;;;;;;21.20;32.40;;;;;;467555;252;1079;-46
2021/03/22 01:52:50;;;;;;;;;;;21.30;32.50;;;;;;468963;252;1096;-45
2021/03/22 01:54:51;;;;;;;;;;;21.30;32.50;;;;;;467185;254;1029;-45
2021/03/22 01:56:53;;;;;;;;;;;21.30;32.50;;;;;;467896;255;1191;-45
2021/03/22 01:58:54;;;;;;;;;;;21.30;32.50;;;;;;467678;252;2149;-45
2021/03/22 02:00:55;;;;;;;;;;;21.30;32.50;;;;;;468985;253;1130;-45
2021/03/22 02:02:56;;;;;;;;;;;21.30;32.40;;;;;;467094;252;1063;-45
2021/03/22 02:04:58;;;;;;;;;;;21.30;32.50;;;;;;467833;255;1064;-45
2021/03/22 02:06:59;;;;;;;;;;;21.30;32.40;;;;;;467691;252;1328;-45
2021/03/22 02:09:01;;;;;;;;;;;21.30;32.40;;;;;;468809;252;1044;-45
2021/03/22 02:11:02;;;;;;;;;;;21.30;32.40;;;;;;466962;254;1473;-45
2021/03/22 02:13:03;;;;;;;;;;;21.30;32.40;;;;;;467790;255;1189;-45
2021/03/22 02:15:04;;;;;;;;;;;21.30;32.40;;;;;;468085;254;1085;-45
2021/03/22 02:17:06;;;;;;;;;;;21.30;32.40;;;;;;467683;253;1224;-45
2021/03/22 02:19:07;;;;;;;;;;;21.30;32.40;;;;;;468938;253;2153;-45
2021/03/22 02:21:08;;;;;;;;;;;21.40;32.50;;;;;;467059;252;1153;-45
2021/03/22 02:23:09;;;;;;;;;;;21.30;32.40;;;;;;467845;253;1164;-45
2021/03/22 02:25:11;;;;;;;;;;;21.40;32.40;;;;;;468203;254;1082;-45
2021/03/22 02:27:12;;;;;;;;;;;21.40;32.40;;;;;;467699;254;1305;-45
2021/03/22 02:29:13;;;;;;;;;;;21.40;32.40;;;;;;467932;254;1129;-45
2021/03/22 02:31:15;;;;;;;;;;;21.40;32.40;;;;;;468057;254;1398;-45
2021/03/22 02:33:16;;;;;;;;;;;21.40;32.40;;;;;;467628;252;1111;-45
2021/03/22 02:35:17;;;;;;;;;;;21.40;32.40;;;;;;468927;252;1641;-45
2021/03/22 02:37:18;;;;;;;;;;;21.40;32.40;;;;;;467063;253;1048;-46
2021/03/22 02:39:20;;;;;;;;;;;21.40;32.30;;;;;;467888;255;2157;-45
2021/03/22 02:41:21;;;;;;;;;;;21.40;32.30;;;;;;467584;253;1206;-45
2021/03/22 02:43:22;;;;;;;;;;;21.40;32.40;;;;;;468924;252;1118;-46
2021/03/22 02:45:24;;;;;;;;;;;21.50;32.40;;;;;;467195;252;1033;-46
2021/03/22 02:47:25;;;;;;;;;;;21.40;32.30;;;;;;467844;253;1135;-45
2021/03/22 02:49:26;;;;;;;;;;;21.40;32.30;;;;;;467619;253;1073;-45
2021/03/22 02:51:28;;;;;;;;;;;21.50;32.40;;;;;;468898;252;1088;-45
2021/03/22 02:53:29;;;;;;;;;;;21.50;32.40;;;;;;467214;252;1054;-45
2021/03/22 02:55:30;;;;;;;;;;;21.50;32.40;;;;;;467853;253;1058;-46
2021/03/22 02:57:32;;;;;;;;;;;21.50;32.40;;;;;;467701;252;1156;-46
2021/03/22 02:59:33;;;;;;;;;;;21.50;32.40;;;;;;469077;253;2153;-45
2021/03/22 03:01:34;;;;;;;;;;;21.50;32.40;;;;;;467028;254;1072;-45
2021/03/22 03:03:35;;;;;;;;;;;21.50;32.30;;;;;;467809;253;1090;-45
2021/03/22 03:05:37;;;;;;;;;;;21.50;32.30;;;;;;467789;253;1058;-45
2021/03/22 03:07:38;;;;;;;;;;;21.50;32.40;;;;;;468920;253;1003;-46
2021/03/22 03:09:39;;;;;;;;;;;21.50;32.40;;;;;;467058;252;1095;-45
2021/03/22 03:11:41;;;;;;;;;;;21.50;32.40;;;;;;468034;253;1101;-45
2021/03/22 03:13:42;;;;;;;;;;;21.50;32.40;;;;;;467602;252;1155;-45
2021/03/22 03:15:43;;;;;;;;;;;21.50;32.40;;;;;;468920;252;1094;-45
2021/03/22 03:17:44;;;;;;;;;;;21.50;32.30;;;;;;467136;254;1028;-45
2021/03/22 03:19:46;;;;;;;;;;;21.50;32.30;;;;;;467908;253;2192;-45
2021/03/22 03:21:47;;;;;;;;;;;21.50;32.30;;;;;;467615;253;1079;-45
2021/03/22 03:23:48;;;;;;;;;;;21.50;32.30;;;;;;468886;253;996;-45
2021/03/22 03:25:50;;;;;;;;;;;21.60;32.40;;;;;;467054;254;1141;-45
2021/03/22 03:27:51;;;;;;;;;;;21.50;32.30;;;;;;467868;255;1198;-45
2021/03/22 03:29:52;;;;;;;;;;;21.50;32.30;;;;;;467623;252;1080;-45
2021/03/22 03:31:53;;;;;;;;;;;21.50;32.30;;;;;;468868;252;1054;-45
2021/03/22 03:33:55;;;;;;;;;;;21.50;32.30;;;;;;467041;254;1238;-45
2021/03/22 03:35:57;;;;;;;;;;;21.60;32.30;;;;;;468127;253;1071;-46
2021/03/22 03:37:57;;;;;;;;;;;21.60;32.30;;;;;;467926;251;1274;-45
2021/03/22 03:39:58;;;;;;;;;;;21.60;32.30;;;;;;467826;254;2208;-45
2021/03/22 03:42:00;;;;;;;;;;;21.50;32.30;;;;;;467922;254;1099;-45
2021/03/22 03:44:01;;;;;;;;;;;21.60;32.40;;;;;;467893;254;1158;-45
2021/03/22 03:46:02;;;;;;;;;;;21.50;32.30;;;;;;467829;254;1042;-45
2021/03/22 03:48:04;;;;;;;;;;;21.60;32.30;;;;;;467620;253;1147;-45
2021/03/22 03:50:05;;;;;;;;;;;21.60;32.30;;;;;;468840;253;1094;-45
2021/03/22 03:52:06;;;;;;;;;;;21.60;32.40;;;;;;467107;253;1171;-45
2021/03/22 03:54:07;;;;;;;;;;;21.60;32.30;;;;;;467998;253;1092;-45
2021/03/22 03:56:09;;;;;;;;;;;21.60;32.30;;;;;;467596;253;1182;-45
2021/03/22 03:58:10;;;;;;;;;;;21.60;32.30;;;;;;468819;252;1183;-45
2021/03/22 04:00:11;;;;;;;;;;;21.60;32.30;;;;;;467130;252;2162;-45
2021/03/22 04:02:13;;;;;;;;;;;21.60;32.30;;;;;;467895;253;1543;-45
2021/03/22 04:04:14;;;;;;;;;;;21.60;32.20;;;;;;467629;253;1132;-45
2021/03/22 04:06:15;;;;;;;;;;;21.60;32.30;;;;;;468912;253;1307;-45
2021/03/22 04:08:16;;;;;;;;;;;21.60;32.20;;;;;;466991;253;1153;-45
2021/03/22 04:10:18;;;;;;;;;;;21.60;32.20;;;;;;468015;253;1113;-45
2021/03/22 04:12:19;;;;;;;;;;;21.60;32.20;;;;;;467843;254;1101;-46
2021/03/22 04:14:20;;;;;;;;;;;21.60;32.20;;;;;;467839;254;1112;-45
2021/03/22 04:16:22;;;;;;;;;;;21.60;32.30;;;;;;469199;254;1083;-46
2021/03/22 04:18:23;;;;;;;;;;;21.60;32.30;;;;;;469634;253;1119;-45
2021/03/22 04:20:24;;;;;;;;;;;21.60;32.30;;;;;;467900;254;2212;-45
2021/03/22 04:22:25;;;;;;;;;;;21.60;32.30;;;;;;467815;252;1042;-46
2021/03/22 04:24:27;;;;;;;;;;;21.70;32.30;;;;;;468908;253;961;-45
2021/03/22 04:26:28;;;;;;;;;;;21.70;32.20;;;;;;467133;254;1055;-45
2021/03/22 04:28:29;;;;;;;;;;;21.60;32.30;;;;;;468092;253;1114;-45
2021/03/22 04:30:30;;;;;;;;;;;21.60;32.20;;;;;;467722;252;1031;-45
2021/03/22 04:32:32;;;;;;;;;;;21.60;32.20;;;;;;468858;253;1227;-45
2021/03/22 04:34:33;;;;;;;;;;;21.70;32.30;;;;;;467041;253;1039;-45
2021/03/22 04:36:34;;;;;;;;;;;21.70;32.30;;;;;;468090;253;1125;-46
2021/03/22 04:38:36;;;;;;;;;;;21.60;32.20;;;;;;467871;254;1115;-45
2021/03/22 04:40:37;;;;;;;;;;;21.60;32.20;;;;;;467662;252;2140;-45
2021/03/22 04:42:38;;;;;;;;;;;21.70;32.30;;;;;;468842;253;1230;-45
2021/03/22 04:44:39;;;;;;;;;;;21.70;32.20;;;;;;467033;253;1206;-45
2021/03/22 04:46:41;;;;;;;;;;;21.70;32.20;;;;;;467769;255;1181;-45
2021/03/22 04:48:42;;;;;;;;;;;21.70;32.20;;;;;;467575;253;983;-45
2021/03/22 04:50:44;;;;;;;;;;;21.70;32.20;;;;;;469094;252;1083;-45
2021/03/22 04:52:45;;;;;;;;;;;21.70;32.10;;;;;;466940;254;1180;-45
2021/03/22 04:54:46;;;;;;;;;;;21.70;32.20;;;;;;467862;255;1069;-45
2021/03/22 04:56:47;;;;;;;;;;;21.70;32.20;;;;;;469118;254;1506;-46
2021/03/22 04:58:49;;;;;;;;;;;21.70;32.20;;;;;;469575;253;1361;-45
2021/03/22 05:00:50;;;;;;;;;;;21.70;32.20;;;;;;467528;253;2145;-45
2021/03/22 05:02:51;;;;;;;;;;;21.70;32.20;;;;;;468780;248;1033;-45
2021/03/22 05:04:52;;;;;;;;;;;21.70;32.20;;;;;;467047;252;1042;-45
2021/03/22 05:06:54;;;;;;;;;;;21.70;32.20;;;;;;467728;255;1091;-45
2021/03/22 05:08:55;;;;;;;;;;;21.70;32.20;;;;;;467835;254;1089;-45
2021/03/22 05:11:00;;;;;;;;;;;21.70;32.10;;;;;;467801;254;1365;-45
2021/03/22 05:12:58;;;;;;;;;;;21.70;32.20;;;;;;467948;254;1374;-45
2021/03/22 05:14:59;;;;;;;;;;;21.80;32.20;;;;;;467531;253;1167;-45
2021/03/22 05:17:00;;;;;;;;;;;21.70;32.20;;;;;;468640;254;1107;-45
2021/03/22 05:19:03;;;;;;;;;;;21.70;32.20;;;;;;467180;253;1073;-45
2021/03/22 05:21:05;;;;;;;;;;;21.70;32.10;;;;;;467683;253;2201;-45
2021/03/22 05:23:06;;;;;;;;;;;21.70;32.20;;;;;;468080;254;1194;-45
2021/03/22 05:25:07;;;;;;;;;;;21.70;32.20;;;;;;469123;254;1099;-45
2021/03/22 05:27:09;;;;;;;;;;;21.70;32.20;;;;;;469534;253;1343;-45
2021/03/22 05:29:10;;;;;;;;;;;21.70;32.20;;;;;;467440;253;1179;-45
2021/03/22 05:31:11;;;;;;;;;;;21.70;32.20;;;;;;468836;253;1155;-46
2021/03/22 05:33:12;;;;;;;;;;;21.70;32.20;;;;;;467008;252;1212;-46
2021/03/22 05:35:14;;;;;;;;;;;21.70;32.20;;;;;;467635;255;1102;-45
2021/03/22 05:37:15;;;;;;;;;;;21.70;32.20;;;;;;467420;252;1151;-45
2021/03/22 05:39:16;;;;;;;;;;;21.70;32.20;;;;;;468697;253;1061;-45
2021/03/22 05:41:17;;;;;;;;;;;21.70;32.20;;;;;;466876;254;2161;-46
2021/03/22 05:43:19;;;;;;;;;;;21.70;32.20;;;;;;467738;255;1033;-45
2021/03/22 05:45:20;;;;;;;;;;;21.70;32.20;;;;;;467528;252;1186;-45
2021/03/22 05:47:21;;;;;;;;;;;21.70;32.20;;;;;;468700;253;1049;-45
2021/03/22 05:49:23;;;;;;;;;;;21.70;32.20;;;;;;466994;252;1099;-45
2021/03/22 05:51:24;;;;;;;;;;;21.70;32.20;;;;;;467694;253;1100;-45
2021/03/22 05:53:25;;;;;;;;;;;21.70;32.30;;;;;;467364;254;1070;-45
2021/03/22 05:55:26;;;;;;;;;;;21.70;32.20;;;;;;468586;252;1072;-45
2021/03/22 05:57:28;;;;;;;;;;;21.80;32.20;;;;;;466797;253;1074;-45
2021/03/22 05:59:29;;;;;;;;;;;21.70;32.20;;;;;;467621;253;1324;-45
2021/03/22 06:01:31;;;;;;;;;;;21.70;32.20;;;;;;467570;254;2208;-45
2021/03/22 06:03:32;;;;;;;;;;;21.70;32.20;;;;;;467648;254;1063;-45
2021/03/22 06:05:33;;;;;;;;;;;21.80;32.20;;;;;;467431;252;1071;-45
2021/03/22 06:07:35;;;;;;;;;;;21.70;32.20;;;;;;468815;253;1148;-45
2021/03/22 06:09:36;;;;;;;;;;;21.70;32.20;;;;;;466886;252;1068;-45
2021/03/22 06:11:37;;;;;;;;;;;21.80;32.20;;;;;;467507;255;1147;-45
2021/03/22 06:13:38;;;;;;;;;;;21.80;32.20;;;;;;467651;254;1089;-45
2021/03/22 06:15:40;;;;;;;;;;;21.80;32.20;;;;;;467574;254;1241;-45
2021/03/22 06:17:41;;;;;;;;;;;21.80;32.20;;;;;;467638;254;1214;-45
2021/03/22 06:19:42;;;;;;;;;;;21.80;32.20;;;;;;467658;254;1055;-45
2021/03/22 06:21:44;;;;;;;;;;;21.80;32.20;;;;;;468946;253;2228;-45
2021/03/22 06:23:45;;;;;;;;;;;21.80;32.30;;;;;;469224;254;1134;-45
2021/03/22 06:25:46;;;;;;;;;;;21.70;32.20;;;;;;467513;254;1075;-45
2021/03/22 06:27:47;;;;;;;;;;;21.80;32.20;;;;;;467451;254;1168;-45
2021/03/22 06:29:49;;;;;;;;;;;21.80;32.20;;;;;;467597;254;1153;-45
2021/03/22 06:31:50;;;;;;;;;;;21.80;32.30;;;;;;467382;252;1200;-45
2021/03/22 06:33:51;;;;;;;;;;;21.80;32.20;;;;;;468618;253;1057;-45
2021/03/22 06:35:53;;;;;;;;;;;21.80;32.20;;;;;;466735;253;1121;-45
2021/03/22 06:37:54;;;;;;;;;;;21.80;32.10;;;;;;467554;255;1112;-45
2021/03/22 06:39:55;;;;;;;;;;;21.80;32.20;;;;;;467512;254;1087;-45
2021/03/22 06:41:56;;;;;;;;;;;21.80;32.20;;;;;;467342;252;2209;-45
2021/03/22 06:43:58;;;;;;;;;;;21.80;32.10;;;;;;468636;252;1084;-45
2021/03/22 06:45:59;;;;;;;;;;;21.80;32.20;;;;;;466728;254;1211;-45
2021/03/22 06:48:00;;;;;;;;;;;21.80;32.10;;;;;;467502;253;1139;-45
2021/03/22 06:50:01;;;;;;;;;;;21.80;32.10;;;;;;467232;252;1133;-45
2021/03/22 06:52:03;;;;;;;;;;;21.80;32.10;;;;;;468428;253;1241;-45
2021/03/22 06:54:04;;;;;;;;;;;21.80;32.10;;;;;;466626;252;1092;-45
2021/03/22 06:56:06;;;;;;;;;;;21.80;32.10;;;;;;467411;253;1359;-46
2021/03/22 06:58:07;;;;;;;;;;;21.80;32.20;;;;;;467099;253;1064;-45
2021/03/22 07:00:08;;;;;;;;;;;21.80;32.20;;;;;;468584;253;1164;-45
2021/03/22 07:02:10;;;;;;;;;;;21.80;32.20;;;;;;466563;253;2217;-45
2021/03/22 07:04:11;;;;;;;;;;;21.80;32.20;;;;;;467421;253;1101;-45
2021/03/22 07:06:13;;;;;;;;;;;21.80;32.20;;;;;;467275;254;1476;-45
2021/03/22 07:08:16;;;;;;;;;;;21.80;32.20;;;;;;467129;254;1083;-45
2021/03/22 07:10:16;;;;;;;;;;;21.80;32.30;;;;;;468458;253;2022;-45
2021/03/22 07:12:16;;;;;;;;;;;21.80;32.20;;;;;;466668;253;1105;-45
2021/03/22 07:14:18;;;;;;;;;;;21.80;32.20;;;;;;467383;253;1293;-45
2021/03/22 07:16:19;;;;;;;;;;;21.80;32.20;;;;;;467193;254;1151;-45
2021/03/22 07:18:20;;;;;;;;;;;21.80;32.20;;;;;;467174;253;1073;-45
2021/03/22 07:20:22;;;;;;;;;;;21.80;32.20;;;;;;468457;252;1081;-45
2021/03/22 07:22:23;;;;;;;;;;;21.80;32.20;;;;;;466632;252;2193;-45
2021/03/22 07:24:24;;;;;;;;;;;21.80;32.20;;;;;;467205;249;1651;-45
2021/03/22 07:26:25;;;;;;;;;;;21.80;32.20;;;;;;468516;254;1226;-45
2021/03/22 07:28:27;;;;;;;;;;;21.80;32.20;;;;;;469202;253;1415;-45
2021/03/22 07:30:28;;;;;;;;;;;21.80;32.20;;;;;;467478;254;1164;-45
2021/03/22 07:32:30;;;;;;;;;;;21.80;32.20;;;;;;467366;254;1260;-45
2021/03/22 07:34:31;;;;;;;;;;;21.80;32.20;;;;;;467421;254;1053;-45
2021/03/22 07:36:32;;;;;;;;;;;21.80;32.20;;;;;;468723;254;1302;-44
2021/03/22 07:38:33;;;;;;;;;;;21.80;32.20;;;;;;469280;254;1103;-45
2021/03/22 07:40:35;;;;;;;;;;;21.80;32.20;;;;;;467124;252;1119;-45
2021/03/22 07:42:36;;;;;;;;;;;21.80;32.20;;;;;;468385;253;2195;-45
2021/03/22 07:44:37;;;;;;;;;;;21.70;32.20;;;;;;466388;253;1077;-45
2021/03/22 07:46:39;;;;;;;;;;;21.70;32.30;;;;;;467176;253;1198;-45
2021/03/22 07:48:40;;;;;;;;;;;21.70;32.30;;;;;;466915;253;1266;-45
2021/03/22 07:50:42;;;;;;;;;;;21.80;32.20;;;;;;468086;252;1173;-44
2021/03/22 07:52:43;;;;;;;;;;;21.80;32.20;;;;;;466281;254;1111;-45
2021/03/22 07:54:44;;;;;;;;;;;21.80;32.20;;;;;;467060;253;1101;-45
2021/03/22 07:56:45;;;;;;;;;;;21.80;32.20;;;;;;468362;254;1281;-45
2021/03/22 07:58:47;;;;;;;;;;;21.80;32.20;;;;;;468742;254;1159;-45
2021/03/22 08:00:48;;;;;;;;;;;21.80;32.20;;;;;;466664;253;1203;-45
2021/03/22 08:02:50;;;;;;;;;;;21.80;32.20;;;;;;467879;252;2203;-45
2021/03/22 08:04:51;;;;;;;;;;;21.90;32.30;;;;;;466094;252;1206;-46
2021/03/22 08:06:52;;;;;;;;;;;21.80;32.20;;;;;;466895;253;1213;-45
2021/03/22 08:08:54;;;;;;;;;;;21.80;32.20;;;;;;466634;252;1316;-46
2021/03/22 08:10:55;;;;;;;;;;;21.80;32.20;;;;;;467864;252;1107;-45
2021/03/22 08:12:56;;;;;;;;;;;21.80;32.20;;;;;;466103;253;1098;-45
2021/03/22 08:14:57;;;;;;;;;;;21.90;32.20;;;;;;466736;253;1185;-45
2021/03/22 08:17:01;;;;;;;;;;;21.90;32.20;;;;;;466747;252;1209;-45
2021/03/22 08:19:00;;;;;;;;;;;21.90;32.20;;;;;;467919;253;1731;-46
2021/03/22 08:21:01;;;;;;;;;;;21.80;32.20;;;;;;466181;252;2377;-45
2021/03/22 08:23:03;;;;;;;;;;;21.90;32.20;;;;;;466932;253;1135;-45
2021/03/22 08:25:04;;;;;;;;;;;21.90;32.20;;;;;;466762;252;1183;-45
2021/03/22 08:27:05;;;;;;;;;;;21.90;32.10;;;;;;467894;253;1139;-45
2021/03/22 08:29:07;;;;;;;;;;;21.90;32.10;;;;;;466138;252;1167;-45
2021/03/22 08:31:08;;;;;;;;;;;21.90;32.10;;;;;;466867;255;1198;-45
2021/03/22 08:33:09;;;;;;;;;;;21.90;32.20;;;;;;466592;252;1124;-45
2021/03/22 08:35:11;;;;;;;;;;;21.90;32.20;;;;;;467354;253;1289;-45
2021/03/22 08:37:12;;;;;;;;;;;21.90;32.20;;;;;;466045;254;1315;-45
2021/03/22 08:39:13;;;;;;;;;;;21.90;32.20;;;;;;467030;253;1262;-45
2021/03/22 08:41:14;;;;;;;;;;;21.90;32.10;;;;;;466651;253;2204;-45
2021/03/22 08:43:16;;;;;;;;;;;21.90;32.10;;;;;;467876;253;1108;-45
2021/03/22 08:45:17;;;;;;;;;;;21.90;32.20;;;;;;465981;254;1155;-45
2021/03/22 08:47:18;;;;;;;;;;;21.90;32.20;;;;;;466847;253;1306;-45
2021/03/22 08:49:20;;;;;;;;;;;21.90;32.20;;;;;;466950;254;1098;-45
2021/03/22 08:51:21;;;;;;;;;;;21.90;32.20;;;;;;466815;253;1379;-45
2021/03/22 08:53:22;;;;;;;;;;;21.90;32.20;;;;;;468372;253;900;-45
2021/03/22 08:55:23;;;;;;;;;;;21.90;32.10;;;;;;466977;254;924;-45
2021/03/22 08:57:25;;;;;;;;;;;21.90;32.20;;;;;;467749;253;1034;-45
2021/03/22 08:59:26;;;;;;;;;;;21.90;32.20;;;;;;466684;254;960;-45
2021/03/22 09:01:27;;;;;;;;;;;21.90;32.20;;;;;;467312;254;2204;-45
2021/03/22 09:03:28;;;;;;;;;;;21.90;32.20;;;;;;468709;254;911;-45
2021/03/22 09:05:30;;;;;;;;;;;21.90;32.20;;;;;;469439;254;866;-45
2021/03/22 09:07:31;;;;;;;;;;;21.90;32.10;;;;;;467624;254;1395;-45
2021/03/22 09:09:32;;;;;;;;;;;21.90;32.20;;;;;;467356;252;1178;-45
2021/03/22 09:11:34;;;;;;;;;;;21.90;32.20;;;;;;468575;253;1080;-45
2021/03/22 09:13:35;;;;;;;;;;;21.90;32.20;;;;;;466464;252;949;-45
2021/03/22 09:15:36;;;;;;;;;;;21.90;32.20;;;;;;467598;253;900;-45
2021/03/22 09:17:37;;;;;;;;;;;21.90;32.20;;;;;;467108;253;1076;-45
2021/03/22 09:19:39;;;;;;;;;;;21.90;32.10;;;;;;468661;252;951;-46
2021/03/22 09:21:40;;;;;;;;;;;21.90;32.10;;;;;;466802;252;2190;-45
2021/03/22 09:23:41;;;;;;;;;;;21.90;32.10;;;;;;467332;253;1170;-45
2021/03/22 09:25:42;;;;;;;;;;;21.90;32.10;;;;;;467499;252;866;-45
2021/03/22 09:27:44;;;;;;;;;;;21.90;32.20;;;;;;468737;252;868;-46
2021/03/22 09:29:45;;;;;;;;;;;21.90;32.20;;;;;;466851;254;1056;-45
2021/03/22 09:31:46;;;;;;;;;;;21.90;32.20;;;;;;467285;253;1292;-45
2021/03/22 09:33:48;;;;;;;;;;;21.90;32.20;;;;;;467673;254;864;-45
2021/03/22 09:35:49;;;;;;;;;;;21.90;32.20;;;;;;467288;253;1204;-45
2021/03/22 09:37:53;;;;;;;;;;;21.90;32.20;;;;;;468751;252;849;-45
2021/03/22 09:39:52;;;;;;;;;;;21.90;32.20;;;;;;466583;253;1938;-46
2021/03/22 09:41:53;;;;;;;;;;;21.90;32.20;;;;;;467123;255;2192;-45
2021/03/22 09:43:54;;;;;;;;;;;21.90;32.20;;;;;;467729;254;1075;-45
2021/03/22 09:45:56;;;;;;;;;;;21.90;32.20;;;;;;467387;253;926;-46
2021/03/22 09:47:57;;;;;;;;;;;21.90;32.20;;;;;;468284;253;1114;-45
2021/03/22 09:49:58;;;;;;;;;;;21.90;32.20;;;;;;466874;254;851;-45
2021/03/22 09:51:59;;;;;;;;;;;21.80;32.20;;;;;;467641;255;1077;-45
2021/03/22 09:54:01;;;;;;;;;;;21.90;32.20;;;;;;467453;254;858;-45
2021/03/22 09:56:02;;;;;;;;;;;21.80;32.20;;;;;;467518;254;919;-45
2021/03/22 09:58:03;;;;;;;;;;;21.90;32.30;;;;;;466867;247;1034;-45
2021/03/22 10:00:05;;;;;;;;;;;21.90;32.30;;;;;;468686;252;1135;-45
2021/03/22 10:02:06;;;;;;;;;;;21.90;32.30;;;;;;466793;252;2204;-45
2021/03/22 10:04:07;;;;;;;;;;;21.80;32.20;;;;;;467658;253;1124;-45
2021/03/22 10:06:08;;;;;;;;;;;21.90;32.20;;;;;;466983;253;1295;-45
2021/03/22 10:08:10;;;;;;;;;;;21.90;32.20;;;;;;468312;252;1124;-45
2021/03/22 10:10:11;;;;;;;;;;;21.90;32.20;;;;;;466964;252;884;-45
2021/03/22 10:12:12;;;;;;;;;;;21.90;32.20;;;;;;467666;255;1192;-45
2021/03/22 10:14:13;;;;;;;;;;;21.90;32.20;;;;;;466925;253;864;-45
2021/03/22 10:16:15;;;;;;;;;;;21.90;32.20;;;;;;468169;249;1235;-45
2021/03/22 10:18:16;;;;;;;;;;;21.90;32.20;;;;;;466401;253;1659;-45
2021/03/22 10:20:17;;;;;;;;;;;21.90;32.20;;;;;;467521;253;885;-45
2021/03/22 10:22:18;;;;;;;;;;;21.90;32.20;;;;;;468539;254;2196;-45
2021/03/22 10:24:21;;;;;;;;;;;22.00;32.00;;;;;;469234;253;885;-45
2021/03/22 10:26:22;;;;;;;;;;;21.80;32.30;;;;;;466803;254;1173;-45
2021/03/22 10:28:23;;;;;;;;;;;21.20;33.20;;;;;;468599;252;973;-45
2021/03/22 10:30:25;;;;;;;;;;;20.70;34.00;;;;;;466331;254;1021;-45
2021/03/22 10:32:26;;;;;;;;;;;20.30;34.80;;;;;;467192;253;1316;-44
2021/03/22 10:34:27;;;;;;;;;;;20.10;35.30;;;;;;466928;253;1175;-45
2021/03/22 10:36:29;;;;;;;;;;;19.90;35.50;;;;;;467827;253;1322;-45
2021/03/22 10:38:30;;;;;;;;;;;19.80;35.90;;;;;;466135;253;1170;-45
2021/03/22 10:40:31;;;;;;;;;;;19.60;36.00;;;;;;466902;253;1270;-45
2021/03/22 10:42:33;;;;;;;;;;;19.50;36.20;;;;;;466983;254;2209;-45
2021/03/22 10:44:36;;;;;;;;;;;19.50;36.50;;;;;;466893;254;1212;-45
2021/03/22 10:46:35;;;;;;;;;;;19.40;36.60;;;;;;466887;254;1236;-45
2021/03/22 10:48:37;;;;;;;;;;;19.30;36.60;;;;;;468324;253;1324;-44
2021/03/22 10:50:38;;;;;;;;;;;19.30;36.70;;;;;;468639;254;1529;-45
2021/03/22 10:52:39;;;;;;;;;;;19.20;36.80;;;;;;466634;253;1205;-45
2021/03/22 10:54:41;;;;;;;;;;;19.20;36.80;;;;;;467827;252;1153;-45
2021/03/22 10:56:42;;;;;;;;;;;19.10;36.90;;;;;;466159;252;1347;-44
2021/03/22 10:58:43;;;;;;;;;;;19.10;37.00;;;;;;467793;253;877;-45
2021/03/22 11:00:44;;;;;;;;;;;19.10;37.10;;;;;;467077;253;957;-45
2021/03/22 11:02:46;;;;;;;;;;;19.10;37.00;;;;;;468737;253;2215;-45
2021/03/22 11:04:47;;;;;;;;;;;19.00;37.10;;;;;;466466;252;881;-45
2021/03/22 11:06:48;;;;;;;;;;;19.00;37.20;;;;;;467451;253;1290;-45
2021/03/22 11:08:50;;;;;;;;;;;19.00;37.10;;;;;;467571;252;935;-44
2021/03/22 11:10:51;;;;;;;;;;;18.90;37.20;;;;;;468418;253;1092;-45
2021/03/22 11:12:52;;;;;;;;;;;18.90;37.20;;;;;;467028;252;1021;-45
2021/03/22 11:14:53;;;;;;;;;;;18.90;37.30;;;;;;467190;253;969;-45
2021/03/22 11:16:55;;;;;;;;;;;18.80;37.30;;;;;;467379;252;1167;-45
2021/03/22 11:18:56;;;;;;;;;;;18.80;37.30;;;;;;468594;253;1109;-45
2021/03/22 11:20:57;;;;;;;;;;;18.70;37.40;;;;;;466981;253;1366;-45
2021/03/22 11:22:58;;;;;;;;;;;18.70;37.50;;;;;;467833;255;2196;-45
2021/03/22 11:25:00;;;;;;;;;;;18.70;37.50;;;;;;467530;252;945;-45
2021/03/22 11:27:01;;;;;;;;;;;18.70;37.50;;;;;;468304;251;1173;-45
2021/03/22 11:29:02;;;;;;;;;;;18.70;37.60;;;;;;466972;252;894;-45
2021/03/22 11:31:04;;;;;;;;;;;18.60;37.60;;;;;;467709;255;1118;-45
2021/03/22 11:33:05;;;;;;;;;;;18.60;37.60;;;;;;467526;252;1047;-45
2021/03/22 11:35:06;;;;;;;;;;;18.60;37.60;;;;;;468840;252;1408;-45
2021/03/22 11:37:08;;;;;;;;;;;18.60;37.70;;;;;;466917;251;1190;-45
2021/03/22 11:39:10;;;;;;;;;;;18.50;37.60;;;;;;467864;253;935;-45
2021/03/22 11:41:11;;;;;;;;;;;18.60;37.60;;;;;;468663;254;1785;-45
2021/03/22 11:43:12;;;;;;;;;;;18.50;37.60;;;;;;469574;253;2211;-45
2021/03/22 11:45:13;;;;;;;;;;;18.50;37.60;;;;;;467380;252;954;-45
2021/03/22 11:47:15;;;;;;;;;;;18.50;37.70;;;;;;469145;246;1402;-45
2021/03/22 11:49:16;;;;;;;;;;;18.50;37.70;;;;;;466586;253;1070;-45
2021/03/22 11:51:17;;;;;;;;;;;18.50;37.70;;;;;;467187;253;1299;-45
2021/03/22 11:53:20;;;;;;;;;;;18.50;37.60;;;;;;467486;252;953;-45
2021/03/22 11:55:20;;;;;;;;;;;18.50;37.60;;;;;;468467;253;2132;-45
2021/03/22 11:57:21;;;;;;;;;;;18.50;37.70;;;;;;466929;252;1214;-45